sensor_id;sensor_type;location;lat;lon;timestamp;P1;durP1;ratioP1;P2;durP2;ratioP2
72301;SDS011;60235;52.234;5.186;2023-04-01T00:02:11;38.28;;;8.40;;
72301;SDS011;60235;52.234;5.186;2023-04-01T00:04:36;27.33;;;8.13;;
72301;SDS011;60235;52.234;5.186;2023-04-01T00:07:03;28.85;;;8.27;;
72301;SDS011;60235;52.234;5.186;2023-04-01T00:09:29;27.10;;;7.30;;
72301;SDS011;60235;52.234;5.186;2023-04-01T00:11:55;28.30;;;7.82;;
72301;SDS011;60235;52.234;5.186;2023-04-01T00:14:21;26.10;;;7.07;;
72301;SDS011;60235;52.234;5.186;2023-04-01T00:16:47;25.42;;;7.05;;
72301;SDS011;60235;52.234;5.186;2023-04-01T00:19:13;26.80;;;7.13;;
72301;SDS011;60235;52.234;5.186;2023-04-01T00:21:40;26.90;;;7.95;;
72301;SDS011;60235;52.234;5.186;2023-04-01T00:24:06;20.60;;;7.13;;
72301;SDS011;60235;52.234;5.186;2023-04-01T00:26:32;30.80;;;8.00;;
72301;SDS011;60235;52.234;5.186;2023-04-01T00:28:58;31.58;;;9.20;;
72301;SDS011;60235;52.234;5.186;2023-04-01T00:31:25;29.13;;;8.88;;
72301;SDS011;60235;52.234;5.186;2023-04-01T00:33:51;43.45;;;9.88;;
72301;SDS011;60235;52.234;5.186;2023-04-01T00:36:18;35.38;;;10.38;;
72301;SDS011;60235;52.234;5.186;2023-04-01T00:38:45;30.90;;;10.05;;
72301;SDS011;60235;52.234;5.186;2023-04-01T00:41:12;40.80;;;10.82;;
72301;SDS011;60235;52.234;5.186;2023-04-01T00:43:40;42.35;;;11.23;;
72301;SDS011;60235;52.234;5.186;2023-04-01T00:46:06;32.22;;;10.23;;
72301;SDS011;60235;52.234;5.186;2023-04-01T00:48:42;36.65;;;11.35;;
72301;SDS011;60235;52.234;5.186;2023-04-01T00:51:11;40.38;;;11.43;;
72301;SDS011;60235;52.234;5.186;2023-04-01T00:53:39;43.92;;;11.38;;
72301;SDS011;60235;52.234;5.186;2023-04-01T00:56:09;31.42;;;9.63;;
72301;SDS011;60235;52.234;5.186;2023-04-01T00:58:36;37.80;;;9.57;;
72301;SDS011;60235;52.234;5.186;2023-04-01T01:01:04;34.47;;;9.63;;
72301;SDS011;60235;52.234;5.186;2023-04-01T01:03:31;34.80;;;9.90;;
72301;SDS011;60235;52.234;5.186;2023-04-01T01:06:04;26.48;;;9.05;;
72301;SDS011;60235;52.234;5.186;2023-04-01T01:11:11;30.08;;;7.93;;
72301;SDS011;60235;52.234;5.186;2023-04-01T01:13:44;22.55;;;7.22;;
72301;SDS011;60235;52.234;5.186;2023-04-01T01:16:29;19.83;;;6.40;;
72301;SDS011;60235;52.234;5.186;2023-04-01T01:19:08;18.83;;;5.78;;
72301;SDS011;60235;52.234;5.186;2023-04-01T01:24:22;18.45;;;5.85;;
72301;SDS011;60235;52.234;5.186;2023-04-01T01:27:04;17.15;;;4.57;;
72301;SDS011;60235;52.234;5.186;2023-04-01T01:29:34;15.35;;;5.20;;
72301;SDS011;60235;52.234;5.186;2023-04-01T01:37:38;13.38;;;4.93;;
72301;SDS011;60235;52.234;5.186;2023-04-01T01:40:06;15.93;;;5.20;;
72301;SDS011;60235;52.234;5.186;2023-04-01T01:42:33;13.65;;;4.55;;
72301;SDS011;60235;52.234;5.186;2023-04-01T01:45:01;14.13;;;3.97;;
72301;SDS011;60235;52.234;5.186;2023-04-01T01:47:28;13.02;;;5.18;;
72301;SDS011;60235;52.234;5.186;2023-04-01T01:49:55;17.80;;;4.82;;
72301;SDS011;60235;52.234;5.186;2023-04-01T01:52:21;12.68;;;4.18;;
72301;SDS011;60235;52.234;5.186;2023-04-01T01:54:51;11.95;;;3.95;;
72301;SDS011;60235;52.234;5.186;2023-04-01T01:57:19;14.23;;;4.05;;
72301;SDS011;60235;52.234;5.186;2023-04-01T01:59:46;13.40;;;4.13;;
72301;SDS011;60235;52.234;5.186;2023-04-01T02:02:13;16.23;;;4.32;;
72301;SDS011;60235;52.234;5.186;2023-04-01T02:04:40;12.45;;;4.03;;
72301;SDS011;60235;52.234;5.186;2023-04-01T02:07:09;13.18;;;3.88;;
72301;SDS011;60235;52.234;5.186;2023-04-01T02:09:36;11.68;;;3.97;;
72301;SDS011;60235;52.234;5.186;2023-04-01T02:12:04;11.38;;;3.50;;
72301;SDS011;60235;52.234;5.186;2023-04-01T02:19:31;14.27;;;4.68;;
72301;SDS011;60235;52.234;5.186;2023-04-01T02:21:59;14.35;;;4.22;;
72301;SDS011;60235;52.234;5.186;2023-04-01T02:24:26;14.25;;;5.10;;
72301;SDS011;60235;52.234;5.186;2023-04-01T02:26:53;17.88;;;5.30;;
72301;SDS011;60235;52.234;5.186;2023-04-01T02:29:20;13.23;;;4.63;;
72301;SDS011;60235;52.234;5.186;2023-04-01T02:31:47;14.05;;;4.53;;
72301;SDS011;60235;52.234;5.186;2023-04-01T02:34:14;13.38;;;4.95;;
72301;SDS011;60235;52.234;5.186;2023-04-01T02:36:41;14.15;;;4.70;;
72301;SDS011;60235;52.234;5.186;2023-04-01T02:39:07;13.48;;;5.07;;
72301;SDS011;60235;52.234;5.186;2023-04-01T02:41:40;16.70;;;5.57;;
72301;SDS011;60235;52.234;5.186;2023-04-01T02:44:06;16.20;;;5.75;;
72301;SDS011;60235;52.234;5.186;2023-04-01T02:46:32;18.85;;;6.70;;
72301;SDS011;60235;52.234;5.186;2023-04-01T02:48:58;17.77;;;6.80;;
72301;SDS011;60235;52.234;5.186;2023-04-01T02:51:25;17.40;;;7.43;;
72301;SDS011;60235;52.234;5.186;2023-04-01T02:53:52;19.85;;;7.18;;
72301;SDS011;60235;52.234;5.186;2023-04-01T02:56:18;16.55;;;7.85;;
72301;SDS011;60235;52.234;5.186;2023-04-01T02:58:45;22.33;;;7.32;;
72301;SDS011;60235;52.234;5.186;2023-04-01T03:01:11;20.40;;;7.70;;
72301;SDS011;60235;52.234;5.186;2023-04-01T03:03:37;21.48;;;7.68;;
72301;SDS011;60235;52.234;5.186;2023-04-01T03:06:07;20.58;;;8.13;;
72301;SDS011;60235;52.234;5.186;2023-04-01T03:08:33;23.52;;;9.23;;
72301;SDS011;60235;52.234;5.186;2023-04-01T03:10:59;27.35;;;9.73;;
72301;SDS011;60235;52.234;5.186;2023-04-01T03:13:25;30.48;;;10.40;;
72301;SDS011;60235;52.234;5.186;2023-04-01T03:15:51;23.95;;;8.55;;
72301;SDS011;60235;52.234;5.186;2023-04-01T03:18:18;24.27;;;9.38;;
72301;SDS011;60235;52.234;5.186;2023-04-01T03:20:44;24.15;;;7.90;;
72301;SDS011;60235;52.234;5.186;2023-04-01T03:23:10;22.83;;;8.98;;
72301;SDS011;60235;52.234;5.186;2023-04-01T03:25:36;20.73;;;8.05;;
72301;SDS011;60235;52.234;5.186;2023-04-01T03:28:03;23.67;;;8.18;;
72301;SDS011;60235;52.234;5.186;2023-04-01T03:30:29;21.88;;;8.18;;
72301;SDS011;60235;52.234;5.186;2023-04-01T03:32:56;25.45;;;8.55;;
72301;SDS011;60235;52.234;5.186;2023-04-01T03:35:22;18.02;;;6.70;;
72301;SDS011;60235;52.234;5.186;2023-04-01T03:37:50;22.80;;;7.55;;
72301;SDS011;60235;52.234;5.186;2023-04-01T03:40:16;20.08;;;7.18;;
72301;SDS011;60235;52.234;5.186;2023-04-01T03:42:42;19.92;;;6.75;;
72301;SDS011;60235;52.234;5.186;2023-04-01T03:45:08;20.42;;;7.15;;
72301;SDS011;60235;52.234;5.186;2023-04-01T03:47:34;20.27;;;7.22;;
72301;SDS011;60235;52.234;5.186;2023-04-01T03:50:01;20.58;;;7.00;;
72301;SDS011;60235;52.234;5.186;2023-04-01T03:52:27;18.45;;;6.90;;
72301;SDS011;60235;52.234;5.186;2023-04-01T03:54:53;21.70;;;7.38;;
72301;SDS011;60235;52.234;5.186;2023-04-01T03:57:19;18.33;;;6.88;;
72301;SDS011;60235;52.234;5.186;2023-04-01T03:59:45;15.43;;;5.88;;
72301;SDS011;60235;52.234;5.186;2023-04-01T04:02:11;16.52;;;5.82;;
72301;SDS011;60235;52.234;5.186;2023-04-01T04:04:37;13.35;;;5.03;;
72301;SDS011;60235;52.234;5.186;2023-04-01T04:07:03;13.68;;;4.13;;
72301;SDS011;60235;52.234;5.186;2023-04-01T04:09:32;12.32;;;3.92;;
72301;SDS011;60235;52.234;5.186;2023-04-01T04:11:58;10.57;;;3.03;;
72301;SDS011;60235;52.234;5.186;2023-04-01T04:14:24;8.95;;;2.75;;
72301;SDS011;60235;52.234;5.186;2023-04-01T04:16:50;10.60;;;3.15;;
72301;SDS011;60235;52.234;5.186;2023-04-01T04:19:16;9.98;;;3.30;;
72301;SDS011;60235;52.234;5.186;2023-04-01T04:21:42;9.93;;;3.10;;
72301;SDS011;60235;52.234;5.186;2023-04-01T04:24:08;11.52;;;3.22;;
72301;SDS011;60235;52.234;5.186;2023-04-01T04:26:35;9.23;;;3.03;;
72301;SDS011;60235;52.234;5.186;2023-04-01T04:29:01;11.73;;;3.55;;
72301;SDS011;60235;52.234;5.186;2023-04-01T04:31:27;13.02;;;4.30;;
72301;SDS011;60235;52.234;5.186;2023-04-01T04:33:53;14.32;;;3.88;;
72301;SDS011;60235;52.234;5.186;2023-04-01T04:36:20;13.32;;;4.15;;
72301;SDS011;60235;52.234;5.186;2023-04-01T04:38:47;13.48;;;3.95;;
72301;SDS011;60235;52.234;5.186;2023-04-01T04:41:13;11.77;;;4.75;;
72301;SDS011;60235;52.234;5.186;2023-04-01T04:43:40;12.35;;;4.30;;
72301;SDS011;60235;52.234;5.186;2023-04-01T04:46:07;15.05;;;4.95;;
72301;SDS011;60235;52.234;5.186;2023-04-01T04:48:33;12.80;;;4.80;;
72301;SDS011;60235;52.234;5.186;2023-04-01T04:50:59;15.27;;;4.63;;
72301;SDS011;60235;52.234;5.186;2023-04-01T04:53:25;12.82;;;4.40;;
72301;SDS011;60235;52.234;5.186;2023-04-01T04:55:51;12.70;;;4.53;;
72301;SDS011;60235;52.234;5.186;2023-04-01T04:58:18;12.95;;;4.60;;
72301;SDS011;60235;52.234;5.186;2023-04-01T05:00:44;13.27;;;5.00;;
72301;SDS011;60235;52.234;5.186;2023-04-01T05:03:11;15.05;;;5.40;;
72301;SDS011;60235;52.234;5.186;2023-04-01T05:05:37;15.50;;;5.10;;
72301;SDS011;60235;52.234;5.186;2023-04-01T05:08:03;14.18;;;5.50;;
72301;SDS011;60235;52.234;5.186;2023-04-01T05:10:29;14.90;;;5.32;;
72301;SDS011;60235;52.234;5.186;2023-04-01T05:12:56;14.88;;;5.22;;
72301;SDS011;60235;52.234;5.186;2023-04-01T05:15:22;14.70;;;5.72;;
72301;SDS011;60235;52.234;5.186;2023-04-01T05:17:49;14.43;;;5.30;;
72301;SDS011;60235;52.234;5.186;2023-04-01T05:20:15;14.02;;;5.60;;
72301;SDS011;60235;52.234;5.186;2023-04-01T05:22:41;14.13;;;5.18;;
72301;SDS011;60235;52.234;5.186;2023-04-01T05:25:07;13.90;;;5.05;;
72301;SDS011;60235;52.234;5.186;2023-04-01T05:27:33;14.38;;;5.30;;
72301;SDS011;60235;52.234;5.186;2023-04-01T05:29:59;15.40;;;5.55;;
72301;SDS011;60235;52.234;5.186;2023-04-01T05:32:25;14.77;;;5.85;;
72301;SDS011;60235;52.234;5.186;2023-04-01T05:34:52;13.60;;;5.13;;
72301;SDS011;60235;52.234;5.186;2023-04-01T05:37:18;15.65;;;5.75;;
72301;SDS011;60235;52.234;5.186;2023-04-01T05:39:44;15.10;;;5.50;;
72301;SDS011;60235;52.234;5.186;2023-04-01T05:42:10;15.43;;;5.47;;
72301;SDS011;60235;52.234;5.186;2023-04-01T05:44:36;14.82;;;5.45;;
72301;SDS011;60235;52.234;5.186;2023-04-01T05:47:02;14.60;;;5.68;;
72301;SDS011;60235;52.234;5.186;2023-04-01T05:49:29;14.80;;;5.75;;
72301;SDS011;60235;52.234;5.186;2023-04-01T05:51:55;14.77;;;5.10;;
72301;SDS011;60235;52.234;5.186;2023-04-01T05:54:21;15.68;;;5.70;;
72301;SDS011;60235;52.234;5.186;2023-04-01T05:56:47;13.88;;;4.97;;
72301;SDS011;60235;52.234;5.186;2023-04-01T05:59:13;13.63;;;5.13;;
72301;SDS011;60235;52.234;5.186;2023-04-01T06:01:39;14.18;;;5.30;;
72301;SDS011;60235;52.234;5.186;2023-04-01T06:04:05;13.18;;;4.32;;
72301;SDS011;60235;52.234;5.186;2023-04-01T06:06:31;14.70;;;5.03;;
72301;SDS011;60235;52.234;5.186;2023-04-01T06:08:58;14.15;;;5.28;;
72301;SDS011;60235;52.234;5.186;2023-04-01T06:16:42;14.75;;;5.15;;
72301;SDS011;60235;52.234;5.186;2023-04-01T06:19:31;12.07;;;4.45;;
72301;SDS011;60235;52.234;5.186;2023-04-01T06:27:16;11.18;;;4.35;;
72301;SDS011;60235;52.234;5.186;2023-04-01T06:29:47;12.30;;;4.18;;
72301;SDS011;60235;52.234;5.186;2023-04-01T06:35:08;12.05;;;3.88;;
72301;SDS011;60235;52.234;5.186;2023-04-01T06:45:34;11.00;;;3.20;;
72301;SDS011;60235;52.234;5.186;2023-04-01T06:55:35;9.32;;;2.60;;
72301;SDS011;60235;52.234;5.186;2023-04-01T06:58:03;9.50;;;3.40;;
72301;SDS011;60235;52.234;5.186;2023-04-01T07:00:37;13.90;;;4.22;;
72301;SDS011;60235;52.234;5.186;2023-04-01T07:05:31;16.92;;;5.60;;
72301;SDS011;60235;52.234;5.186;2023-04-01T07:07:57;15.63;;;5.05;;
72301;SDS011;60235;52.234;5.186;2023-04-01T07:13:07;16.10;;;5.43;;
72301;SDS011;60235;52.234;5.186;2023-04-01T07:15:36;15.32;;;5.20;;
72301;SDS011;60235;52.234;5.186;2023-04-01T07:18:12;13.77;;;5.35;;
72301;SDS011;60235;52.234;5.186;2023-04-01T07:20:41;15.80;;;5.72;;
72301;SDS011;60235;52.234;5.186;2023-04-01T07:23:10;15.38;;;5.53;;
72301;SDS011;60235;52.234;5.186;2023-04-01T07:25:42;14.05;;;5.00;;
72301;SDS011;60235;52.234;5.186;2023-04-01T07:28:13;17.50;;;5.88;;
72301;SDS011;60235;52.234;5.186;2023-04-01T07:30:52;20.00;;;6.05;;
72301;SDS011;60235;52.234;5.186;2023-04-01T07:35:56;16.13;;;5.88;;
72301;SDS011;60235;52.234;5.186;2023-04-01T07:48:42;16.35;;;6.43;;
72301;SDS011;60235;52.234;5.186;2023-04-01T07:51:13;18.33;;;6.50;;
72301;SDS011;60235;52.234;5.186;2023-04-01T07:53:49;19.30;;;6.45;;
72301;SDS011;60235;52.234;5.186;2023-04-01T07:56:36;22.67;;;6.53;;
72301;SDS011;60235;52.234;5.186;2023-04-01T08:05:14;20.88;;;7.72;;
72301;SDS011;60235;52.234;5.186;2023-04-01T08:10:13;20.90;;;7.05;;
72301;SDS011;60235;52.234;5.186;2023-04-01T08:22:40;19.50;;;6.55;;
72301;SDS011;60235;52.234;5.186;2023-04-01T08:25:09;18.02;;;6.72;;
72301;SDS011;60235;52.234;5.186;2023-04-01T08:27:39;19.63;;;6.55;;
72301;SDS011;60235;52.234;5.186;2023-04-01T08:30:19;17.95;;;6.55;;
72301;SDS011;60235;52.234;5.186;2023-04-01T08:32:47;20.55;;;6.43;;
72301;SDS011;60235;52.234;5.186;2023-04-01T08:35:18;20.48;;;6.40;;
72301;SDS011;60235;52.234;5.186;2023-04-01T08:37:45;15.82;;;5.95;;
72301;SDS011;60235;52.234;5.186;2023-04-01T08:40:31;17.33;;;6.40;;
72301;SDS011;60235;52.234;5.186;2023-04-01T08:48:44;18.50;;;5.82;;
72301;SDS011;60235;52.234;5.186;2023-04-01T09:01:58;12.10;;;4.57;;
72301;SDS011;60235;52.234;5.186;2023-04-01T09:04:33;14.35;;;4.78;;
72301;SDS011;60235;52.234;5.186;2023-04-01T09:15:12;10.27;;;3.63;;
72301;SDS011;60235;52.234;5.186;2023-04-01T09:27:29;16.02;;;4.40;;
72301;SDS011;60235;52.234;5.186;2023-04-01T09:45:50;13.88;;;5.30;;
72301;SDS011;60235;52.234;5.186;2023-04-01T09:48:36;14.63;;;5.50;;
72301;SDS011;60235;52.234;5.186;2023-04-01T09:51:17;14.45;;;5.65;;
72301;SDS011;60235;52.234;5.186;2023-04-01T09:53:52;16.80;;;6.22;;
72301;SDS011;60235;52.234;5.186;2023-04-01T10:02:03;18.65;;;6.32;;
72301;SDS011;60235;52.234;5.186;2023-04-01T10:07:28;15.20;;;6.35;;
72301;SDS011;60235;52.234;5.186;2023-04-01T10:10:14;14.40;;;6.50;;
72301;SDS011;60235;52.234;5.186;2023-04-01T10:15:29;15.20;;;6.38;;
72301;SDS011;60235;52.234;5.186;2023-04-01T10:18:10;17.67;;;6.43;;
72301;SDS011;60235;52.234;5.186;2023-04-01T10:33:54;12.75;;;5.30;;
72301;SDS011;60235;52.234;5.186;2023-04-01T11:12:04;9.25;;;4.15;;
72301;SDS011;60235;52.234;5.186;2023-04-01T11:14:46;10.27;;;3.83;;
72301;SDS011;60235;52.234;5.186;2023-04-01T11:25:11;9.93;;;4.63;;
72301;SDS011;60235;52.234;5.186;2023-04-01T11:40:47;11.30;;;5.40;;
72301;SDS011;60235;52.234;5.186;2023-04-01T11:45:56;12.82;;;6.05;;
72301;SDS011;60235;52.234;5.186;2023-04-01T11:48:38;13.48;;;6.32;;
72301;SDS011;60235;52.234;5.186;2023-04-01T11:56:41;14.13;;;6.20;;
72301;SDS011;60235;52.234;5.186;2023-04-01T11:59:15;13.80;;;6.05;;
72301;SDS011;60235;52.234;5.186;2023-04-01T12:07:05;15.27;;;6.95;;
72301;SDS011;60235;52.234;5.186;2023-04-01T12:12:15;17.13;;;6.80;;
72301;SDS011;60235;52.234;5.186;2023-04-01T12:28:08;16.80;;;7.50;;
72301;SDS011;60235;52.234;5.186;2023-04-01T12:33:02;18.27;;;7.32;;
72301;SDS011;60235;52.234;5.186;2023-04-01T12:41:02;14.15;;;6.32;;
72301;SDS011;60235;52.234;5.186;2023-04-01T12:43:43;14.18;;;6.70;;
72301;SDS011;60235;52.234;5.186;2023-04-01T12:59:48;12.50;;;5.47;;
72301;SDS011;60235;52.234;5.186;2023-04-01T13:13:07;11.50;;;5.22;;
72301;SDS011;60235;52.234;5.186;2023-04-01T13:15:44;12.18;;;4.95;;
72301;SDS011;60235;52.234;5.186;2023-04-01T13:34:04;9.75;;;4.43;;
72301;SDS011;60235;52.234;5.186;2023-04-01T13:41:43;10.85;;;4.10;;
72301;SDS011;60235;52.234;5.186;2023-04-01T13:47:23;14.20;;;4.70;;
72301;SDS011;60235;52.234;5.186;2023-04-01T14:02:51;13.80;;;5.38;;
72301;SDS011;60235;52.234;5.186;2023-04-01T14:05:26;11.85;;;4.97;;
72301;SDS011;60235;52.234;5.186;2023-04-01T14:26:10;10.18;;;4.65;;
72301;SDS011;60235;52.234;5.186;2023-04-01T14:33:33;10.50;;;4.78;;
72301;SDS011;60235;52.234;5.186;2023-04-01T14:36:21;11.20;;;4.38;;
72301;SDS011;60235;52.234;5.186;2023-04-01T14:51:54;12.30;;;5.20;;
72301;SDS011;60235;52.234;5.186;2023-04-01T14:54:31;11.13;;;5.15;;
72301;SDS011;60235;52.234;5.186;2023-04-01T14:57:40;11.02;;;4.85;;
72301;SDS011;60235;52.234;5.186;2023-04-01T14:59:53;12.23;;;5.03;;
72301;SDS011;60235;52.234;5.186;2023-04-01T15:05:15;11.13;;;5.05;;
72301;SDS011;60235;52.234;5.186;2023-04-01T15:15:49;11.00;;;4.65;;
72301;SDS011;60235;52.234;5.186;2023-04-01T15:26:37;9.23;;;4.35;;
72301;SDS011;60235;52.234;5.186;2023-04-01T15:29:28;10.27;;;4.10;;
72301;SDS011;60235;52.234;5.186;2023-04-01T15:32:01;9.15;;;4.30;;
72301;SDS011;60235;52.234;5.186;2023-04-01T15:39:57;10.77;;;4.30;;
72301;SDS011;60235;52.234;5.186;2023-04-01T15:45:17;9.35;;;3.97;;
72301;SDS011;60235;52.234;5.186;2023-04-01T15:48:10;10.63;;;4.30;;
72301;SDS011;60235;52.234;5.186;2023-04-01T15:50:42;9.98;;;4.47;;
72301;SDS011;60235;52.234;5.186;2023-04-01T15:56:48;11.98;;;4.93;;
72301;SDS011;60235;52.234;5.186;2023-04-01T15:58:51;9.25;;;4.70;;
72301;SDS011;60235;52.234;5.186;2023-04-01T16:09:32;8.88;;;4.25;;
72301;SDS011;60235;52.234;5.186;2023-04-01T16:12:04;10.65;;;4.22;;
72301;SDS011;60235;52.234;5.186;2023-04-01T16:22:26;8.60;;;3.80;;
72301;SDS011;60235;52.234;5.186;2023-04-01T16:33:15;6.35;;;2.10;;
72301;SDS011;60235;52.234;5.186;2023-04-01T16:35:44;6.85;;;2.42;;
72301;SDS011;60235;52.234;5.186;2023-04-01T16:41:01;5.78;;;2.20;;
72301;SDS011;60235;52.234;5.186;2023-04-01T16:46:39;7.10;;;2.65;;
72301;SDS011;60235;52.234;5.186;2023-04-01T16:54:16;8.77;;;3.17;;
72301;SDS011;60235;52.234;5.186;2023-04-01T16:57:10;6.10;;;2.70;;
72301;SDS011;60235;52.234;5.186;2023-04-01T16:59:34;8.10;;;3.03;;
72301;SDS011;60235;52.234;5.186;2023-04-01T17:04:35;7.30;;;3.10;;
72301;SDS011;60235;52.234;5.186;2023-04-01T17:07:06;6.75;;;2.83;;
72301;SDS011;60235;52.234;5.186;2023-04-01T17:09:42;6.10;;;2.53;;
72301;SDS011;60235;52.234;5.186;2023-04-01T17:17:18;6.45;;;2.28;;
72301;SDS011;60235;52.234;5.186;2023-04-01T17:19:55;5.30;;;2.15;;
72301;SDS011;60235;52.234;5.186;2023-04-01T17:45:55;5.97;;;2.58;;
72301;SDS011;60235;52.234;5.186;2023-04-01T17:51:24;6.20;;;2.35;;
72301;SDS011;60235;52.234;5.186;2023-04-01T17:58:55;7.53;;;2.78;;
72301;SDS011;60235;52.234;5.186;2023-04-01T18:01:26;8.20;;;3.30;;
72301;SDS011;60235;52.234;5.186;2023-04-01T18:04:04;6.80;;;2.83;;
72301;SDS011;60235;52.234;5.186;2023-04-01T18:12:06;9.77;;;3.00;;
72301;SDS011;60235;52.234;5.186;2023-04-01T18:14:58;6.72;;;2.63;;
72301;SDS011;60235;52.234;5.186;2023-04-01T18:17:41;6.47;;;2.83;;
72301;SDS011;60235;52.234;5.186;2023-04-01T18:25:30;6.53;;;2.67;;
72301;SDS011;60235;52.234;5.186;2023-04-01T18:30:32;7.97;;;2.90;;
72301;SDS011;60235;52.234;5.186;2023-04-01T18:33:06;6.75;;;2.60;;
72301;SDS011;60235;52.234;5.186;2023-04-01T18:35:48;5.90;;;2.30;;
72301;SDS011;60235;52.234;5.186;2023-04-01T18:38:27;6.15;;;2.58;;
72301;SDS011;60235;52.234;5.186;2023-04-01T18:43:33;6.75;;;2.83;;
72301;SDS011;60235;52.234;5.186;2023-04-01T18:49:13;7.07;;;3.00;;
72301;SDS011;60235;52.234;5.186;2023-04-01T18:54:09;8.93;;;3.78;;
72301;SDS011;60235;52.234;5.186;2023-04-01T18:56:41;10.35;;;4.20;;
72301;SDS011;60235;52.234;5.186;2023-04-01T18:59:11;8.80;;;4.45;;
72301;SDS011;60235;52.234;5.186;2023-04-01T19:04:15;9.70;;;4.82;;
72301;SDS011;60235;52.234;5.186;2023-04-01T19:06:50;10.80;;;5.13;;
72301;SDS011;60235;52.234;5.186;2023-04-01T19:42:06;11.00;;;5.10;;
72301;SDS011;60235;52.234;5.186;2023-04-01T19:47:07;11.15;;;5.45;;
72301;SDS011;60235;52.234;5.186;2023-04-01T19:57:28;11.10;;;5.15;;
72301;SDS011;60235;52.234;5.186;2023-04-01T19:59:59;10.98;;;5.40;;
72301;SDS011;60235;52.234;5.186;2023-04-01T20:02:31;12.27;;;5.32;;
72301;SDS011;60235;52.234;5.186;2023-04-01T20:04:59;10.90;;;5.25;;
72301;SDS011;60235;52.234;5.186;2023-04-01T20:07:43;11.02;;;5.10;;
72301;SDS011;60235;52.234;5.186;2023-04-01T20:10:16;11.93;;;5.25;;
72301;SDS011;60235;52.234;5.186;2023-04-01T20:15:44;10.65;;;4.93;;
72301;SDS011;60235;52.234;5.186;2023-04-01T20:18:05;10.43;;;4.72;;
72301;SDS011;60235;52.234;5.186;2023-04-01T20:20:33;11.13;;;5.00;;
72301;SDS011;60235;52.234;5.186;2023-04-01T20:25:55;11.85;;;5.18;;
72301;SDS011;60235;52.234;5.186;2023-04-01T20:28:28;10.43;;;5.53;;
72301;SDS011;60235;52.234;5.186;2023-04-01T20:44:03;10.68;;;5.20;;
72301;SDS011;60235;52.234;5.186;2023-04-01T20:46:36;11.02;;;5.25;;
72301;SDS011;60235;52.234;5.186;2023-04-01T20:51:53;11.18;;;5.40;;
72301;SDS011;60235;52.234;5.186;2023-04-01T20:56:57;11.10;;;5.15;;
72301;SDS011;60235;52.234;5.186;2023-04-01T21:07:28;11.48;;;5.25;;
72301;SDS011;60235;52.234;5.186;2023-04-01T21:12:39;12.65;;;5.25;;
72301;SDS011;60235;52.234;5.186;2023-04-01T21:15:11;11.32;;;5.20;;
72301;SDS011;60235;52.234;5.186;2023-04-01T21:17:45;12.05;;;5.47;;
72301;SDS011;60235;52.234;5.186;2023-04-01T21:28:00;12.40;;;5.65;;
72301;SDS011;60235;52.234;5.186;2023-04-01T21:35:44;11.93;;;5.28;;
72301;SDS011;60235;52.234;5.186;2023-04-01T21:44:11;10.40;;;4.85;;
72301;SDS011;60235;52.234;5.186;2023-04-01T22:07:20;12.85;;;6.18;;
72301;SDS011;60235;52.234;5.186;2023-04-01T22:22:52;14.43;;;6.13;;
72301;SDS011;60235;52.234;5.186;2023-04-01T22:27:52;14.60;;;6.25;;
72301;SDS011;60235;52.234;5.186;2023-04-01T22:30:24;14.18;;;5.47;;
72301;SDS011;60235;52.234;5.186;2023-04-01T22:32:52;13.23;;;5.40;;
72301;SDS011;60235;52.234;5.186;2023-04-01T22:35:39;13.32;;;5.63;;
72301;SDS011;60235;52.234;5.186;2023-04-01T22:43:41;14.35;;;5.78;;
72301;SDS011;60235;52.234;5.186;2023-04-01T22:53:37;17.45;;;6.70;;
72301;SDS011;60235;52.234;5.186;2023-04-01T22:56:15;12.75;;;6.25;;
72301;SDS011;60235;52.234;5.186;2023-04-01T23:01:08;14.35;;;6.40;;
72301;SDS011;60235;52.234;5.186;2023-04-01T23:06:04;16.05;;;6.35;;
72301;SDS011;60235;52.234;5.186;2023-04-01T23:11:17;14.10;;;6.57;;
72301;SDS011;60235;52.234;5.186;2023-04-01T23:13:45;13.98;;;6.38;;
72301;SDS011;60235;52.234;5.186;2023-04-01T23:16:13;16.75;;;6.38;;
72301;SDS011;60235;52.234;5.186;2023-04-01T23:18:50;16.73;;;6.53;;
72301;SDS011;60235;52.234;5.186;2023-04-01T23:21:21;16.55;;;6.70;;
72301;SDS011;60235;52.234;5.186;2023-04-01T23:29:20;18.58;;;5.80;;
72301;SDS011;60235;52.234;5.186;2023-04-01T23:31:47;16.58;;;7.32;;
72301;SDS011;60235;52.234;5.186;2023-04-01T23:36:43;14.70;;;7.10;;
72301;SDS011;60235;52.234;5.186;2023-04-01T23:39:17;14.85;;;7.03;;
72301;SDS011;60235;52.234;5.186;2023-04-01T23:41:46;16.42;;;6.53;;
72301;SDS011;60235;52.234;5.186;2023-04-01T23:44:13;12.75;;;6.38;;
72301;SDS011;60235;52.234;5.186;2023-04-01T23:46:40;14.02;;;6.85;;
72301;SDS011;60235;52.234;5.186;2023-04-01T23:49:12;17.08;;;7.25;;
72301;SDS011;60235;52.234;5.186;2023-04-01T23:51:46;18.58;;;7.57;;
72301;SDS011;60235;52.234;5.186;2023-04-01T23:54:18;18.52;;;7.50;;
72301;SDS011;60235;52.234;5.186;2023-04-01T23:56:48;17.45;;;6.93;;
72301;SDS011;60235;52.234;5.186;2023-04-01T23:59:30;15.77;;;7.43;;
